sensor_id;sensor_type;location;lat;lon;timestamp;pressure;altitude;pressure_sealevel;temperature
66113;BMP280;52893;52.870;5.822;2023-05-10T00:02:07;100704.28;;;13.46
66113;BMP280;52893;52.870;5.822;2023-05-10T00:04:35;100707.34;;;13.44
66113;BMP280;52893;52.870;5.822;2023-05-10T00:07:02;100701.06;;;13.44
66113;BMP280;52893;52.870;5.822;2023-05-10T00:09:30;100700.63;;;13.42
66113;BMP280;52893;52.870;5.822;2023-05-10T00:11:57;100702.22;;;13.43
66113;BMP280;52893;52.870;5.822;2023-05-10T00:14:24;100696.75;;;13.43
66113;BMP280;52893;52.870;5.822;2023-05-10T00:16:52;100695.16;;;13.42
66113;BMP280;52893;52.870;5.822;2023-05-10T00:19:19;100697.88;;;13.42
66113;BMP280;52893;52.870;5.822;2023-05-10T00:21:47;100695.16;;;13.42
66113;BMP280;52893;52.870;5.822;2023-05-10T00:24:15;100696.75;;;13.43
66113;BMP280;52893;52.870;5.822;2023-05-10T00:26:42;100665.97;;;13.22
66113;BMP280;52893;52.870;5.822;2023-05-10T00:29:09;100695.47;;;13.40
66113;BMP280;52893;52.870;5.822;2023-05-10T00:31:37;100685.31;;;13.41
66113;BMP280;52893;52.870;5.822;2023-05-10T00:34:04;100682.91;;;13.39
66113;BMP280;52893;52.870;5.822;2023-05-10T00:36:31;100682.56;;;13.41
66113;BMP280;52893;52.870;5.822;2023-05-10T00:39:00;100692.41;;;13.42
66113;BMP280;52893;52.870;5.822;2023-05-10T00:41:27;100685.41;;;13.44
66113;BMP280;52893;52.870;5.822;2023-05-10T00:43:54;100686.22;;;13.45
66113;BMP280;52893;52.870;5.822;2023-05-10T00:46:23;100683.94;;;13.47
66113;BMP280;52893;52.870;5.822;2023-05-10T00:48:50;100683.94;;;13.47
66113;BMP280;52893;52.870;5.822;2023-05-10T00:51:18;100678.47;;;13.47
66113;BMP280;52893;52.870;5.822;2023-05-10T00:53:45;100687.03;;;13.45
66113;BMP280;52893;52.870;5.822;2023-05-10T00:56:14;100683.38;;;13.41
66113;BMP280;52893;52.870;5.822;2023-05-10T00:58:42;100679.84;;;13.41
66113;BMP280;52893;52.870;5.822;2023-05-10T01:01:10;100684.50;;;13.40
66113;BMP280;52893;52.870;5.822;2023-05-10T01:03:37;100679.28;;;13.35
66113;BMP280;52893;52.870;5.822;2023-05-10T01:06:06;100684.84;;;13.39
66113;BMP280;52893;52.870;5.822;2023-05-10T01:08:35;100686.78;;;13.38
66113;BMP280;52893;52.870;5.822;2023-05-10T01:11:03;100684.84;;;13.39
66113;BMP280;52893;52.870;5.822;2023-05-10T01:13:34;100680.91;;;13.36
66113;BMP280;52893;52.870;5.822;2023-05-10T01:16:02;100666.16;;;13.29
66113;BMP280;52893;52.870;5.822;2023-05-10T01:18:29;100674.50;;;13.32
66113;BMP280;52893;52.870;5.822;2023-05-10T01:21:08;100681.09;;;13.31
66113;BMP280;52893;52.870;5.822;2023-05-10T01:23:50;100683.41;;;13.29
66113;BMP280;52893;52.870;5.822;2023-05-10T01:26:38;100677.13;;;13.29
66113;BMP280;52893;52.870;5.822;2023-05-10T01:29:18;100674.81;;;13.31
66113;BMP280;52893;52.870;5.822;2023-05-10T01:32:09;100680.31;;;13.31
66113;BMP280;52893;52.870;5.822;2023-05-10T01:34:44;100682.59;;;13.29
66113;BMP280;52893;52.870;5.822;2023-05-10T01:37:20;100667.44;;;13.19
66113;BMP280;52893;52.870;5.822;2023-05-10T01:39:52;100688.91;;;13.29
66113;BMP280;52893;52.870;5.822;2023-05-10T01:42:26;100670.53;;;13.18
66113;BMP280;52893;52.870;5.822;2023-05-10T01:45:00;100687.38;;;13.32
66113;BMP280;52893;52.870;5.822;2023-05-10T01:47:35;100691.75;;;13.33
66113;BMP280;52893;52.870;5.822;2023-05-10T01:50:08;100686.72;;;13.35
66113;BMP280;52893;52.870;5.822;2023-05-10T01:52:38;100694.94;;;13.35
66113;BMP280;52893;52.870;5.822;2023-05-10T01:55:11;100687.53;;;13.35
66113;BMP280;52893;52.870;5.822;2023-05-10T01:57:42;100689.13;;;13.36
66113;BMP280;52893;52.870;5.822;2023-05-10T02:00:11;100686.78;;;13.38
66113;BMP280;52893;52.870;5.822;2023-05-10T02:02:46;100683.72;;;13.40
66113;BMP280;52893;52.870;5.822;2023-05-10T02:05:15;100689.19;;;13.40
66113;BMP280;52893;52.870;5.822;2023-05-10T02:07:43;100681.78;;;13.40
66113;BMP280;52893;52.870;5.822;2023-05-10T02:10:11;100688.06;;;13.41
66113;BMP280;52893;52.870;5.822;2023-05-10T02:12:41;100683.03;;;13.43
66113;BMP280;52893;52.870;5.822;2023-05-10T02:15:11;100691.69;;;13.45
66113;BMP280;52893;52.870;5.822;2023-05-10T02:17:42;100696.03;;;13.46
66113;BMP280;52893;52.870;5.822;2023-05-10T02:20:11;100694.09;;;13.46
66113;BMP280;52893;52.870;5.822;2023-05-10T02:22:40;100694.69;;;13.40
66113;BMP280;52893;52.870;5.822;2023-05-10T02:25:09;100702.41;;;13.50
66113;BMP280;52893;52.870;5.822;2023-05-10T02:27:38;100698.53;;;13.51
66113;BMP280;52893;52.870;5.822;2023-05-10T02:30:09;100704.00;;;13.51
66113;BMP280;52893;52.870;5.822;2023-05-10T02:32:37;100700.47;;;13.50
66113;BMP280;52893;52.870;5.822;2023-05-10T02:35:08;100705.16;;;13.50
66113;BMP280;52893;52.870;5.822;2023-05-10T02:37:37;100702.06;;;13.51
66113;BMP280;52893;52.870;5.822;2023-05-10T02:40:06;100698.00;;;13.45
66113;BMP280;52893;52.870;5.822;2023-05-10T02:42:36;100704.81;;;13.51
66113;BMP280;52893;52.870;5.822;2023-05-10T02:45:07;100703.81;;;13.56
66113;BMP280;52893;52.870;5.822;2023-05-10T02:47:35;100711.63;;;13.58
66113;BMP280;52893;52.870;5.822;2023-05-10T02:50:03;100688.63;;;13.46
66113;BMP280;52893;52.870;5.822;2023-05-10T02:52:39;100714.03;;;13.59
66113;BMP280;52893;52.870;5.822;2023-05-10T02:55:09;100708.56;;;13.59
66113;BMP280;52893;52.870;5.822;2023-05-10T02:57:41;100710.16;;;13.60
66113;BMP280;52893;52.870;5.822;2023-05-10T03:00:10;100709.34;;;13.60
66113;BMP280;52893;52.870;5.822;2023-05-10T03:02:38;100711.28;;;13.59
66113;BMP280;52893;52.870;5.822;2023-05-10T03:05:05;100713.69;;;13.61
66113;BMP280;52893;52.870;5.822;2023-05-10T03:07:33;100710.16;;;13.60
66113;BMP280;52893;52.870;5.822;2023-05-10T03:10:02;100708.56;;;13.59
66113;BMP280;52893;52.870;5.822;2023-05-10T03:12:37;100714.84;;;13.60
66113;BMP280;52893;52.870;5.822;2023-05-10T03:15:12;100712.09;;;13.60
66113;BMP280;52893;52.870;5.822;2023-05-10T03:17:46;100722.72;;;13.61
66113;BMP280;52893;52.870;5.822;2023-05-10T03:20:21;100718.84;;;13.62
66113;BMP280;52893;52.870;5.822;2023-05-10T03:22:52;100714.03;;;13.59
66113;BMP280;52893;52.870;5.822;2023-05-10T03:25:22;100725.81;;;13.60
66113;BMP280;52893;52.870;5.822;2023-05-10T03:27:52;100723.41;;;13.58
66113;BMP280;52893;52.870;5.822;2023-05-10T03:30:21;100722.25;;;13.59
66113;BMP280;52893;52.870;5.822;2023-05-10T03:32:49;100723.78;;;13.57
66113;BMP280;52893;52.870;5.822;2023-05-10T03:35:17;100727.41;;;13.61
66113;BMP280;52893;52.870;5.822;2023-05-10T03:37:44;100724.13;;;13.55
66113;BMP280;52893;52.870;5.822;2023-05-10T03:40:12;100729.34;;;13.60
66113;BMP280;52893;52.870;5.822;2023-05-10T03:42:43;100732.09;;;13.60
66113;BMP280;52893;52.870;5.822;2023-05-10T03:45:11;100728.22;;;13.61
66113;BMP280;52893;52.870;5.822;2023-05-10T03:47:38;100727.06;;;13.62
66113;BMP280;52893;52.870;5.822;2023-05-10T03:50:06;100730.25;;;13.64
66113;BMP280;52893;52.870;5.822;2023-05-10T03:52:34;100736.88;;;13.63
66113;BMP280;52893;52.870;5.822;2023-05-10T03:55:01;100736.06;;;13.63
66113;BMP280;52893;52.870;5.822;2023-05-10T03:57:29;100741.56;;;13.63
66113;BMP280;52893;52.870;5.822;2023-05-10T03:59:58;100730.97;;;13.61
66113;BMP280;52893;52.870;5.822;2023-05-10T04:02:25;100744.31;;;13.63
66113;BMP280;52893;52.870;5.822;2023-05-10T04:04:52;100738.38;;;13.61
66113;BMP280;52893;52.870;5.822;2023-05-10T04:07:20;100745.00;;;13.60
66113;BMP280;52893;52.870;5.822;2023-05-10T04:09:47;100753.22;;;13.60
66113;BMP280;52893;52.870;5.822;2023-05-10T04:12:14;100751.63;;;13.59
66113;BMP280;52893;52.870;5.822;2023-05-10T04:14:41;100749.97;;;13.54
66113;BMP280;52893;52.870;5.822;2023-05-10T04:17:10;100747.69;;;13.56
66113;BMP280;52893;52.870;5.822;2023-05-10T04:19:37;100755.50;;;13.58
66113;BMP280;52893;52.870;5.822;2023-05-10T04:22:04;100757.38;;;13.53
66113;BMP280;52893;52.870;5.822;2023-05-10T04:24:32;100752.22;;;13.52
66113;BMP280;52893;52.870;5.822;2023-05-10T04:26:59;100755.56;;;13.45
66113;BMP280;52893;52.870;5.822;2023-05-10T04:29:26;100745.03;;;13.47
66113;BMP280;52893;52.870;5.822;2023-05-10T04:31:54;100752.03;;;13.45
66113;BMP280;52893;52.870;5.822;2023-05-10T04:34:24;100744.16;;;13.43
66113;BMP280;52893;52.870;5.822;2023-05-10T04:36:51;100748.16;;;13.46
66113;BMP280;52893;52.870;5.822;2023-05-10T04:39:18;100754.44;;;13.46
66113;BMP280;52893;52.870;5.822;2023-05-10T04:41:45;100757.19;;;13.46
66113;BMP280;52893;52.870;5.822;2023-05-10T04:44:12;100762.28;;;13.48
66113;BMP280;52893;52.870;5.822;2023-05-10T04:46:40;100781.06;;;13.46
66113;BMP280;52893;52.870;5.822;2023-05-10T04:49:07;100773.25;;;13.48
66113;BMP280;52893;52.870;5.822;2023-05-10T04:51:36;100746.81;;;13.28
66113;BMP280;52893;52.870;5.822;2023-05-10T04:54:03;100774.88;;;13.49
66113;BMP280;52893;52.870;5.822;2023-05-10T04:56:30;100774.88;;;13.49
66113;BMP280;52893;52.870;5.822;2023-05-10T04:58:58;100783.53;;;13.51
66113;BMP280;52893;52.870;5.822;2023-05-10T05:01:25;100778.06;;;13.51
66113;BMP280;52893;52.870;5.822;2023-05-10T05:03:52;100772.47;;;13.47
66113;BMP280;52893;52.870;5.822;2023-05-10T05:06:19;100760.47;;;13.40
66113;BMP280;52893;52.870;5.822;2023-05-10T05:08:48;100784.66;;;13.50
66113;BMP280;52893;52.870;5.822;2023-05-10T05:11:16;100785.84;;;13.49
66113;BMP280;52893;52.870;5.822;2023-05-10T05:13:43;100784.22;;;13.48
66113;BMP280;52893;52.870;5.822;2023-05-10T05:16:10;100786.75;;;13.53
66113;BMP280;52893;52.870;5.822;2023-05-10T05:18:38;100778.19;;;13.55
66113;BMP280;52893;52.870;5.822;2023-05-10T05:21:13;100793.09;;;13.57
66113;BMP280;52893;52.870;5.822;2023-05-10T05:23:40;100789.69;;;13.60
66113;BMP280;52893;52.870;5.822;2023-05-10T05:26:09;100801.91;;;13.63
66113;BMP280;52893;52.870;5.822;2023-05-10T05:28:37;100770.19;;;13.49
66113;BMP280;52893;52.870;5.822;2023-05-10T05:31:05;100807.06;;;13.64
66113;BMP280;52893;52.870;5.822;2023-05-10T05:33:33;100805.13;;;13.65
66113;BMP280;52893;52.870;5.822;2023-05-10T05:36:01;100815.28;;;13.64
66113;BMP280;52893;52.870;5.822;2023-05-10T05:38:28;100817.59;;;13.62
66113;BMP280;52893;52.870;5.822;2023-05-10T05:40:55;100812.09;;;13.62
66113;BMP280;52893;52.870;5.822;2023-05-10T05:43:24;100809.56;;;13.57
66113;BMP280;52893;52.870;5.822;2023-05-10T05:45:52;100811.63;;;13.60
66113;BMP280;52893;52.870;5.822;2023-05-10T05:48:19;100820.66;;;13.61
66113;BMP280;52893;52.870;5.822;2023-05-10T05:50:47;100826.59;;;13.63
66113;BMP280;52893;52.870;5.822;2023-05-10T05:53:14;100827.06;;;13.65
66113;BMP280;52893;52.870;5.822;2023-05-10T05:55:51;100835.72;;;13.67
66113;BMP280;52893;52.870;5.822;2023-05-10T05:58:18;100840.41;;;13.66
66113;BMP280;52893;52.870;5.822;2023-05-10T06:00:46;100840.78;;;13.65
66113;BMP280;52893;52.870;5.822;2023-05-10T06:03:13;100833.69;;;13.64
66113;BMP280;52893;52.870;5.822;2023-05-10T06:05:41;100838.84;;;13.65
66113;BMP280;52893;52.870;5.822;2023-05-10T06:08:08;100839.72;;;13.69
66113;BMP280;52893;52.870;5.822;2023-05-10T06:10:35;100844.53;;;13.72
66113;BMP280;52893;52.870;5.822;2023-05-10T06:13:03;100842.25;;;13.74
66113;BMP280;52893;52.870;5.822;2023-05-10T06:15:31;100842.59;;;13.73
66113;BMP280;52893;52.870;5.822;2023-05-10T06:17:59;100842.94;;;13.71
66113;BMP280;52893;52.870;5.822;2023-05-10T06:20:26;100850.69;;;13.69
66113;BMP280;52893;52.870;5.822;2023-05-10T06:22:54;100851.50;;;13.70
66113;BMP280;52893;52.870;5.822;2023-05-10T06:25:21;100856.66;;;13.71
66113;BMP280;52893;52.870;5.822;2023-05-10T06:27:48;100855.50;;;13.72
66113;BMP280;52893;52.870;5.822;2023-05-10T06:30:15;100859.38;;;13.71
66113;BMP280;52893;52.870;5.822;2023-05-10T06:32:43;100843.53;;;13.65
66113;BMP280;52893;52.870;5.822;2023-05-10T06:35:12;100861.00;;;13.72
66113;BMP280;52893;52.870;5.822;2023-05-10T06:37:39;100875.19;;;13.74
66113;BMP280;52893;52.870;5.822;2023-05-10T06:40:07;100858.91;;;13.69
66113;BMP280;52893;52.870;5.822;2023-05-10T06:42:35;100865.00;;;13.75
66113;BMP280;52893;52.870;5.822;2023-05-10T06:45:03;100872.44;;;13.74
66113;BMP280;52893;52.870;5.822;2023-05-10T06:47:31;100873.56;;;13.73
66113;BMP280;52893;52.870;5.822;2023-05-10T06:49:58;100874.38;;;13.74
66113;BMP280;52893;52.870;5.822;2023-05-10T06:52:27;100874.38;;;13.74
66113;BMP280;52893;52.870;5.822;2023-05-10T06:54:54;100876.75;;;13.75
66113;BMP280;52893;52.870;5.822;2023-05-10T06:57:21;100872.84;;;13.76
66113;BMP280;52893;52.870;5.822;2023-05-10T06:59:48;100870.56;;;13.78
66113;BMP280;52893;52.870;5.822;2023-05-10T07:02:15;100875.34;;;13.81
66113;BMP280;52893;52.870;5.822;2023-05-10T07:04:43;100792.59;;;13.39
66113;BMP280;52893;52.870;5.822;2023-05-10T07:07:10;100859.69;;;13.82
66113;BMP280;52893;52.870;5.822;2023-05-10T07:09:39;100852.84;;;13.76
66113;BMP280;52893;52.870;5.822;2023-05-10T07:12:06;100817.72;;;13.53
66113;BMP280;52893;52.870;5.822;2023-05-10T07:14:33;100878.47;;;13.80
66113;BMP280;52893;52.870;5.822;2023-05-10T07:17:00;100884.88;;;13.84
66113;BMP280;52893;52.870;5.822;2023-05-10T07:19:28;100870.56;;;13.78
66113;BMP280;52893;52.870;5.822;2023-05-10T07:21:58;100879.81;;;13.86
66113;BMP280;52893;52.870;5.822;2023-05-10T07:24:25;100883.78;;;13.88
66113;BMP280;52893;52.870;5.822;2023-05-10T07:26:54;100891.03;;;13.93
66113;BMP280;52893;52.870;5.822;2023-05-10T07:29:21;100887.69;;;13.99
66113;BMP280;52893;52.870;5.822;2023-05-10T07:31:48;100885.72;;;14.00
66113;BMP280;52893;52.870;5.822;2023-05-10T07:34:15;100895.66;;;14.05
66113;BMP280;52893;52.870;5.822;2023-05-10T07:36:42;100874.91;;;13.91
66113;BMP280;52893;52.870;5.822;2023-05-10T07:39:10;100900.44;;;14.08
66113;BMP280;52893;52.870;5.822;2023-05-10T07:41:37;100863.78;;;13.88
66113;BMP280;52893;52.870;5.822;2023-05-10T07:44:06;100893.81;;;14.09
66113;BMP280;52893;52.870;5.822;2023-05-10T07:46:33;100908.66;;;14.20
66113;BMP280;52893;52.870;5.822;2023-05-10T07:49:00;100914.25;;;14.23
66113;BMP280;52893;52.870;5.822;2023-05-10T07:51:28;100911.13;;;14.25
66113;BMP280;52893;52.870;5.822;2023-05-10T07:53:55;100904.78;;;14.21
66113;BMP280;52893;52.870;5.822;2023-05-10T07:56:25;100918.00;;;14.31
66113;BMP280;52893;52.870;5.822;2023-05-10T07:58:53;100917.28;;;14.34
66113;BMP280;52893;52.870;5.822;2023-05-10T08:01:22;100914.63;;;14.37
66113;BMP280;52893;52.870;5.822;2023-05-10T08:03:49;100917.91;;;14.43
66113;BMP280;52893;52.870;5.822;2023-05-10T08:06:19;100929.84;;;14.47
66113;BMP280;52893;52.870;5.822;2023-05-10T08:08:47;100928.22;;;14.46
66113;BMP280;52893;52.870;5.822;2023-05-10T08:11:16;100929.94;;;14.50
66113;BMP280;52893;52.870;5.822;2023-05-10T08:13:51;100933.22;;;14.56
66113;BMP280;52893;52.870;5.822;2023-05-10T08:16:24;100941.19;;;14.61
66113;BMP280;52893;52.870;5.822;2023-05-10T08:18:52;100905.31;;;14.42
66113;BMP280;52893;52.870;5.822;2023-05-10T08:21:21;100936.25;;;14.67
66113;BMP280;52893;52.870;5.822;2023-05-10T08:23:48;100948.50;;;14.69
66113;BMP280;52893;52.870;5.822;2023-05-10T08:26:15;100951.25;;;14.69
66113;BMP280;52893;52.870;5.822;2023-05-10T08:28:42;100945.66;;;14.66
66113;BMP280;52893;52.870;5.822;2023-05-10T08:31:09;100948.41;;;14.66
66113;BMP280;52893;52.870;5.822;2023-05-10T08:33:38;100953.91;;;14.66
66113;BMP280;52893;52.870;5.822;2023-05-10T08:36:06;100950.44;;;14.69
66113;BMP280;52893;52.870;5.822;2023-05-10T08:38:33;100948.50;;;14.69
66113;BMP280;52893;52.870;5.822;2023-05-10T08:41:02;100952.41;;;14.68
66113;BMP280;52893;52.870;5.822;2023-05-10T08:43:30;100957.97;;;14.72
66113;BMP280;52893;52.870;5.822;2023-05-10T08:46:00;100945.03;;;14.72
66113;BMP280;52893;52.870;5.822;2023-05-10T08:48:28;100952.88;;;14.86
66113;BMP280;52893;52.870;5.822;2023-05-10T08:50:58;100954.38;;;14.99
66113;BMP280;52893;52.870;5.822;2023-05-10T08:53:28;100966.56;;;15.14
66113;BMP280;52893;52.870;5.822;2023-05-10T08:55:57;100968.88;;;15.27
66113;BMP280;52893;52.870;5.822;2023-05-10T08:58:25;100968.25;;;15.34
66113;BMP280;52893;52.870;5.822;2023-05-10T09:00:52;100968.25;;;15.34
66113;BMP280;52893;52.870;5.822;2023-05-10T09:03:20;100975.44;;;15.38
66113;BMP280;52893;52.870;5.822;2023-05-10T09:05:47;100974.53;;;15.50
66113;BMP280;52893;52.870;5.822;2023-05-10T09:08:17;100961.75;;;15.42
66113;BMP280;52893;52.870;5.822;2023-05-10T09:10:45;100991.66;;;15.59
66113;BMP280;52893;52.870;5.822;2023-05-10T09:13:14;100974.69;;;15.57
66113;BMP280;52893;52.870;5.822;2023-05-10T09:15:43;100980.91;;;15.70
66113;BMP280;52893;52.870;5.822;2023-05-10T09:18:10;100991.59;;;15.90
66113;BMP280;52893;52.870;5.822;2023-05-10T09:20:38;101000.81;;;15.98
66113;BMP280;52893;52.870;5.822;2023-05-10T09:23:05;100993.38;;;15.98
66113;BMP280;52893;52.870;5.822;2023-05-10T09:25:34;101002.44;;;15.99
66113;BMP280;52893;52.870;5.822;2023-05-10T09:28:01;101006.84;;;16.03
66113;BMP280;52893;52.870;5.822;2023-05-10T09:30:30;101008.44;;;16.05
66113;BMP280;52893;52.870;5.822;2023-05-10T09:32:58;101016.31;;;16.06
66113;BMP280;52893;52.870;5.822;2023-05-10T09:35:28;101018.75;;;16.08
66113;BMP280;52893;52.870;5.822;2023-05-10T09:37:57;100984.19;;;15.94
66113;BMP280;52893;52.870;5.822;2023-05-10T09:40:26;101019.31;;;16.17
66113;BMP280;52893;52.870;5.822;2023-05-10T09:42:57;101012.88;;;16.09
66113;BMP280;52893;52.870;5.822;2023-05-10T09:45:25;101022.06;;;16.17
66113;BMP280;52893;52.870;5.822;2023-05-10T09:47:53;100999.72;;;16.02
66113;BMP280;52893;52.870;5.822;2023-05-10T09:50:21;101028.88;;;16.23
66113;BMP280;52893;52.870;5.822;2023-05-10T09:52:50;101041.06;;;16.22
66113;BMP280;52893;52.870;5.822;2023-05-10T09:55:19;101045.06;;;16.24
66113;BMP280;52893;52.870;5.822;2023-05-10T09:57:48;101027.38;;;16.25
66113;BMP280;52893;52.870;5.822;2023-05-10T10:00:28;101042.09;;;16.33
66113;BMP280;52893;52.870;5.822;2023-05-10T10:03:02;101039.22;;;16.45
66113;BMP280;52893;52.870;5.822;2023-05-10T10:05:29;101037.28;;;16.45
66113;BMP280;52893;52.870;5.822;2023-05-10T10:07:57;101048.91;;;16.58
66113;BMP280;52893;52.870;5.822;2023-05-10T10:10:25;101046.25;;;16.62
66113;BMP280;52893;52.870;5.822;2023-05-10T10:12:53;101041.66;;;16.69
66113;BMP280;52893;52.870;5.822;2023-05-10T10:15:23;101047.75;;;16.78
66113;BMP280;52893;52.870;5.822;2023-05-10T10:17:51;101045.78;;;16.79
66113;BMP280;52893;52.870;5.822;2023-05-10T10:20:20;101058.97;;;16.89
66113;BMP280;52893;52.870;5.822;2023-05-10T10:22:48;101053.44;;;16.85
66113;BMP280;52893;52.870;5.822;2023-05-10T10:25:17;101065.63;;;16.84
66113;BMP280;52893;52.870;5.822;2023-05-10T10:27:49;101067.94;;;16.82
66113;BMP280;52893;52.870;5.822;2023-05-10T10:30:29;101064.38;;;16.82
66113;BMP280;52893;52.870;5.822;2023-05-10T10:33:13;101067.63;;;16.68
66113;BMP280;52893;52.870;5.822;2023-05-10T10:35:45;101060.97;;;16.69
66113;BMP280;52893;52.870;5.822;2023-05-10T10:38:13;101063.28;;;16.67
66113;BMP280;52893;52.870;5.822;2023-05-10T10:40:40;101065.63;;;16.65
66113;BMP280;52893;52.870;5.822;2023-05-10T10:43:22;101065.84;;;16.57
66113;BMP280;52893;52.870;5.822;2023-05-10T10:46:21;101063.50;;;16.39
66113;BMP280;52893;52.870;5.822;2023-05-10T10:48:50;101076.19;;;16.44
66113;BMP280;52893;52.870;5.822;2023-05-10T10:51:36;101079.69;;;16.41
66113;BMP280;52893;52.870;5.822;2023-05-10T10:54:09;101082.44;;;16.41
66113;BMP280;52893;52.870;5.822;2023-05-10T10:56:36;101080.09;;;16.43
66113;BMP280;52893;52.870;5.822;2023-05-10T10:59:03;101085.63;;;16.43
66113;BMP280;52893;52.870;5.822;2023-05-10T11:01:34;101083.38;;;16.48
66113;BMP280;52893;52.870;5.822;2023-05-10T11:04:17;101054.06;;;16.40
66113;BMP280;52893;52.870;5.822;2023-05-10T11:06:45;101082.91;;;16.62
66113;BMP280;52893;52.870;5.822;2023-05-10T11:09:12;101086.22;;;16.71
66113;BMP280;52893;52.870;5.822;2023-05-10T11:11:51;101095.81;;;16.77
66113;BMP280;52893;52.870;5.822;2023-05-10T11:14:21;101099.84;;;16.83
66113;BMP280;52893;52.870;5.822;2023-05-10T11:16:50;101096.31;;;16.83
66113;BMP280;52893;52.870;5.822;2023-05-10T11:19:19;101100.66;;;16.84
66113;BMP280;52893;52.870;5.822;2023-05-10T11:21:48;101090.34;;;16.81
66113;BMP280;52893;52.870;5.822;2023-05-10T11:24:17;101101.03;;;16.82
66113;BMP280;52893;52.870;5.822;2023-05-10T11:26:44;101100.00;;;16.90
66113;BMP280;52893;52.870;5.822;2023-05-10T11:29:12;101068.22;;;16.77
66113;BMP280;52893;52.870;5.822;2023-05-10T11:31:43;101089.84;;;16.94
66113;BMP280;52893;52.870;5.822;2023-05-10T11:34:22;101103.31;;;16.99
66113;BMP280;52893;52.870;5.822;2023-05-10T11:36:51;101109.72;;;17.03
66113;BMP280;52893;52.870;5.822;2023-05-10T11:39:20;101110.03;;;16.98
66113;BMP280;52893;52.870;5.822;2023-05-10T11:41:48;101111.75;;;16.87
66113;BMP280;52893;52.870;5.822;2023-05-10T11:44:16;101109.97;;;16.76
66113;BMP280;52893;52.870;5.822;2023-05-10T11:46:43;101101.28;;;16.58
66113;BMP280;52893;52.870;5.822;2023-05-10T11:49:10;101121.50;;;16.62
66113;BMP280;52893;52.870;5.822;2023-05-10T11:51:40;101118.13;;;16.53
66113;BMP280;52893;52.870;5.822;2023-05-10T11:54:10;101113.97;;;16.43
66113;BMP280;52893;52.870;5.822;2023-05-10T11:56:39;101117.78;;;16.39
66113;BMP280;52893;52.870;5.822;2023-05-10T11:59:07;101127.97;;;16.35
66113;BMP280;52893;52.870;5.822;2023-05-10T12:01:36;101123.94;;;16.32
66113;BMP280;52893;52.870;5.822;2023-05-10T12:04:03;101130.19;;;16.29
66113;BMP280;52893;52.870;5.822;2023-05-10T12:06:32;101129.84;;;16.31
66113;BMP280;52893;52.870;5.822;2023-05-10T12:09:07;101130.25;;;16.33
66113;BMP280;52893;52.870;5.822;2023-05-10T12:11:37;101138.19;;;16.34
66113;BMP280;52893;52.870;5.822;2023-05-10T12:14:05;101132.66;;;16.34
66113;BMP280;52893;52.870;5.822;2023-05-10T12:16:32;101140.72;;;16.43
66113;BMP280;52893;52.870;5.822;2023-05-10T12:19:00;101132.13;;;16.44
66113;BMP280;52893;52.870;5.822;2023-05-10T12:21:28;101144.97;;;16.56
66113;BMP280;52893;52.870;5.822;2023-05-10T12:24:00;101137.66;;;16.64
66113;BMP280;52893;52.870;5.822;2023-05-10T12:26:29;101144.69;;;16.80
66113;BMP280;52893;52.870;5.822;2023-05-10T12:29:12;101141.81;;;16.92
66113;BMP280;52893;52.870;5.822;2023-05-10T12:31:50;101145.19;;;17.05
66113;BMP280;52893;52.870;5.822;2023-05-10T12:34:23;101151.72;;;17.16
66113;BMP280;52893;52.870;5.822;2023-05-10T12:36:52;101154.41;;;17.32
66113;BMP280;52893;52.870;5.822;2023-05-10T12:39:19;101150.00;;;17.50
66113;BMP280;52893;52.870;5.822;2023-05-10T12:41:47;101151.03;;;17.65
66113;BMP280;52893;52.870;5.822;2023-05-10T12:44:14;101149.75;;;17.81
66113;BMP280;52893;52.870;5.822;2023-05-10T12:46:42;101155.63;;;18.02
66113;BMP280;52893;52.870;5.822;2023-05-10T12:49:09;101155.63;;;18.29
66113;BMP280;52893;52.870;5.822;2023-05-10T12:51:36;101157.31;;;18.66
66113;BMP280;52893;52.870;5.822;2023-05-10T12:54:03;101160.94;;;19.00
66113;BMP280;52893;52.870;5.822;2023-05-10T12:56:30;101159.69;;;19.35
66113;BMP280;52893;52.870;5.822;2023-05-10T12:58:59;101159.28;;;19.73
66113;BMP280;52893;52.870;5.822;2023-05-10T13:01:26;101160.88;;;19.77
66113;BMP280;52893;52.870;5.822;2023-05-10T13:03:53;101159.69;;;19.78
66113;BMP280;52893;52.870;5.822;2023-05-10T13:06:21;101164.06;;;19.79
66113;BMP280;52893;52.870;5.822;2023-05-10T13:08:48;101166.41;;;19.77
66113;BMP280;52893;52.870;5.822;2023-05-10T13:11:15;101167.03;;;19.57
66113;BMP280;52893;52.870;5.822;2023-05-10T13:13:42;101168.56;;;19.51
66113;BMP280;52893;52.870;5.822;2023-05-10T13:16:11;101169.75;;;19.53
66113;BMP280;52893;52.870;5.822;2023-05-10T13:18:38;101170.41;;;19.40
66113;BMP280;52893;52.870;5.822;2023-05-10T13:21:06;101167.94;;;19.28
66113;BMP280;52893;52.870;5.822;2023-05-10T13:23:33;101169.53;;;19.29
66113;BMP280;52893;52.870;5.822;2023-05-10T13:26:00;101163.72;;;19.41
66113;BMP280;52893;52.870;5.822;2023-05-10T13:28:28;101166.59;;;19.51
66113;BMP280;52893;52.870;5.822;2023-05-10T13:30:56;101165.50;;;19.63
66113;BMP280;52893;52.870;5.822;2023-05-10T13:33:24;101164.97;;;19.47
66113;BMP280;52893;52.870;5.822;2023-05-10T13:35:51;101167.78;;;19.54
66113;BMP280;52893;52.870;5.822;2023-05-10T13:38:18;101174.66;;;19.67
66113;BMP280;52893;52.870;5.822;2023-05-10T13:40:46;101163.56;;;19.67
66113;BMP280;52893;52.870;5.822;2023-05-10T13:43:13;101176.06;;;19.50
66113;BMP280;52893;52.870;5.822;2023-05-10T13:45:41;101180.19;;;19.30
66113;BMP280;52893;52.870;5.822;2023-05-10T13:48:08;101163.03;;;19.14
66113;BMP280;52893;52.870;5.822;2023-05-10T13:50:36;101176.44;;;19.08
66113;BMP280;52893;52.870;5.822;2023-05-10T13:53:04;101175.56;;;19.01
66113;BMP280;52893;52.870;5.822;2023-05-10T13:55:31;101182.22;;;18.96
66113;BMP280;52893;52.870;5.822;2023-05-10T13:57:59;101183.00;;;18.97
66113;BMP280;52893;52.870;5.822;2023-05-10T14:00:26;101182.91;;;18.90
66113;BMP280;52893;52.870;5.822;2023-05-10T14:02:54;101184.41;;;18.84
66113;BMP280;52893;52.870;5.822;2023-05-10T14:05:21;101192.69;;;18.80
66113;BMP280;52893;52.870;5.822;2023-05-10T14:07:50;101188.75;;;18.81